createdAt,value
2023-05-05T00:02:17.667Z,23.90
2023-05-05T00:05:32.917Z,24.10
2023-05-05T00:08:45.377Z,24.10
2023-05-05T00:11:55.947Z,24.00
2023-05-05T00:15:09.821Z,24.00
2023-05-05T00:18:24.804Z,24.10
2023-05-05T00:21:36.530Z,24.10
2023-05-05T00:24:49.014Z,24.10
2023-05-05T00:28:01.843Z,24.00
2023-05-05T00:31:12.165Z,24.00
2023-05-05T00:34:23.587Z,24.10
2023-05-05T00:37:35.538Z,24.10
2023-05-05T00:40:47.776Z,24.00
2023-05-05T00:43:59.375Z,23.90
2023-05-05T00:47:09.927Z,24.00
2023-05-05T00:50:25.511Z,24.10
2023-05-05T00:53:41.331Z,24.10
2023-05-05T00:56:51.427Z,23.90
2023-05-05T01:00:01.665Z,23.90
2023-05-05T01:03:13.564Z,23.90
2023-05-05T01:06:32.216Z,24.10
2023-05-05T01:09:45.677Z,24.00
2023-05-05T01:12:59.416Z,23.90
2023-05-05T01:16:16.391Z,23.90
2023-05-05T01:19:40.213Z,24.00
2023-05-05T01:22:52.493Z,24.10
2023-05-05T01:26:31.461Z,23.90
2023-05-05T01:30:02.126Z,23.80
2023-05-05T01:33:12.901Z,23.90
2023-05-05T01:36:23.334Z,24.00
2023-05-05T01:39:36.491Z,24.00
2023-05-05T01:42:48.147Z,23.80
2023-05-05T01:46:02.362Z,23.90
2023-05-05T01:49:11.658Z,23.90
2023-05-05T01:52:22.651Z,24.00
2023-05-05T01:55:35.811Z,23.90
2023-05-05T01:58:44.731Z,23.70
2023-05-05T02:01:58.023Z,23.80
2023-05-05T02:05:10.344Z,23.80
2023-05-05T02:08:23.713Z,23.80
2023-05-05T02:11:34.716Z,23.70
2023-05-05T02:14:47.200Z,23.60
2023-05-05T02:17:58.967Z,23.70
2023-05-05T02:21:11.442Z,23.70
2023-05-05T02:24:22.436Z,23.70
2023-05-05T02:27:35.265Z,23.60
2023-05-05T02:30:45.548Z,23.60
2023-05-05T02:33:56.501Z,23.60
2023-05-05T02:37:09.358Z,23.70
2023-05-05T02:40:22.349Z,23.60
2023-05-05T02:43:38.206Z,23.50
2023-05-05T02:46:50.642Z,23.50
2023-05-05T02:50:03.506Z,23.60
2023-05-05T02:53:14.662Z,23.70
2023-05-05T02:56:30.468Z,23.50
2023-05-05T02:59:42.611Z,23.40
2023-05-05T03:02:55.347Z,23.50
2023-05-05T03:06:11.930Z,23.60
2023-05-05T03:09:24.218Z,23.60
2023-05-05T03:12:38.508Z,23.40
2023-05-05T03:15:50.877Z,23.40
2023-05-05T03:19:01.647Z,23.40
2023-05-05T03:22:15.542Z,23.50
2023-05-05T03:25:28.392Z,23.40
2023-05-05T03:28:38.889Z,23.30
2023-05-05T03:31:48.883Z,23.40
2023-05-05T03:35:00.550Z,23.40
2023-05-05T03:38:12.469Z,23.50
2023-05-05T03:41:25.935Z,23.40
2023-05-05T03:44:37.288Z,23.30
2023-05-05T03:47:48.648Z,23.30
2023-05-05T03:50:59.052Z,23.40
2023-05-05T03:54:11.353Z,23.40
2023-05-05T03:57:21.660Z,23.30
2023-05-05T04:00:33.652Z,23.30
2023-05-05T04:03:44.766Z,23.30
2023-05-05T04:06:58.467Z,23.30
2023-05-05T04:10:11.422Z,23.30
2023-05-05T04:13:20.259Z,23.20
2023-05-05T04:16:29.551Z,23.20
2023-05-05T04:19:41.686Z,23.30
2023-05-05T04:22:53.357Z,23.30
2023-05-05T04:26:05.677Z,23.20
2023-05-05T04:29:17.138Z,23.20
2023-05-05T04:32:31.535Z,23.20
2023-05-05T04:35:40.840Z,23.20
2023-05-05T04:38:52.442Z,23.30
2023-05-05T04:42:05.721Z,23.20
2023-05-05T04:45:15.494Z,23.10
2023-05-05T04:48:28.690Z,23.20
2023-05-05T04:51:41.620Z,23.20
2023-05-05T04:54:53.327Z,23.20
2023-05-05T04:58:07.342Z,23.10
2023-05-05T05:01:21.692Z,23.10
2023-05-05T05:04:32.372Z,23.10
2023-05-05T05:07:44.280Z,23.10
2023-05-05T05:10:55.998Z,23.10
2023-05-05T05:14:09.783Z,23.00
2023-05-05T05:17:24.620Z,23.00
2023-05-05T05:20:35.252Z,23.10
2023-05-05T05:23:47.284Z,23.10
2023-05-05T05:26:59.646Z,23.00
2023-05-05T05:30:12.469Z,23.00
2023-05-05T05:33:22.234Z,23.00
2023-05-05T05:36:32.546Z,23.00
2023-05-05T05:39:43.205Z,23.00
2023-05-05T05:42:54.188Z,23.00
2023-05-05T05:46:08.376Z,22.90
2023-05-05T05:49:18.900Z,22.90
2023-05-05T05:52:30.417Z,23.00
2023-05-05T05:55:42.756Z,22.90
2023-05-05T05:58:55.501Z,22.90
2023-05-05T06:02:10.240Z,22.90
2023-05-05T06:05:19.263Z,22.90
2023-05-05T06:08:28.295Z,23.00
2023-05-05T06:11:43.137Z,22.90
2023-05-05T06:14:54.686Z,22.80
2023-05-05T06:18:06.813Z,22.80
2023-05-05T06:21:17.268Z,22.90
2023-05-05T06:24:25.130Z,22.90
2023-05-05T06:27:33.035Z,22.80
2023-05-05T06:30:46.839Z,22.80
2023-05-05T06:33:57.944Z,22.80
2023-05-05T06:37:12.679Z,22.90
2023-05-05T06:40:22.706Z,22.80
2023-05-05T06:43:34.595Z,22.70
2023-05-05T06:46:45.391Z,22.70
2023-05-05T06:49:55.473Z,22.80
2023-05-05T06:53:06.085Z,22.80
2023-05-05T06:56:19.708Z,22.70
2023-05-05T06:59:32.917Z,22.70
2023-05-05T07:02:45.637Z,22.60
2023-05-05T07:05:56.199Z,22.70
2023-05-05T07:09:09.035Z,22.70
2023-05-05T07:12:23.508Z,22.70
2023-05-05T07:15:36.874Z,22.70
2023-05-05T07:18:45.550Z,22.60
2023-05-05T07:21:56.129Z,22.70
2023-05-05T07:25:11.157Z,22.70
2023-05-05T07:28:24.080Z,22.70
2023-05-05T07:31:35.427Z,22.60
2023-05-05T07:34:48.056Z,22.60
2023-05-05T07:38:00.847Z,22.70
2023-05-05T07:41:12.231Z,22.70
2023-05-05T07:44:22.671Z,22.60
2023-05-05T07:47:36.556Z,22.60
2023-05-05T07:50:47.323Z,22.60
2023-05-05T07:54:00.316Z,22.60
2023-05-05T07:57:11.297Z,22.60
2023-05-05T08:00:24.600Z,22.50
2023-05-05T08:03:33.758Z,22.50
2023-05-05T08:06:48.243Z,22.60
2023-05-05T08:09:57.751Z,22.50
2023-05-05T08:13:09.033Z,22.50
2023-05-05T08:16:21.044Z,22.50
2023-05-05T08:19:34.935Z,22.50
2023-05-05T08:22:44.177Z,22.60
2023-05-05T08:25:55.964Z,22.40
2023-05-05T08:29:05.663Z,22.50
2023-05-05T08:32:18.831Z,22.40
2023-05-05T08:35:31.798Z,22.50
2023-05-05T08:38:40.881Z,22.60
2023-05-05T08:41:51.903Z,22.40
2023-05-05T08:45:02.586Z,22.40
2023-05-05T08:48:14.372Z,22.40
2023-05-05T08:51:26.364Z,22.50
2023-05-05T08:54:37.121Z,22.40
2023-05-05T08:57:49.628Z,22.30
2023-05-05T09:01:03.663Z,22.30
2023-05-05T09:04:13.076Z,22.30
2023-05-05T09:07:25.585Z,22.40
2023-05-05T09:10:37.914Z,22.40
2023-05-05T09:13:49.123Z,22.30
2023-05-05T09:17:00.973Z,22.30
2023-05-05T09:20:13.396Z,22.30
2023-05-05T09:23:22.705Z,22.40
2023-05-05T09:26:30.570Z,22.30
2023-05-05T09:29:41.837Z,22.30
2023-05-05T09:32:50.711Z,22.30
2023-05-05T09:36:03.864Z,22.30
2023-05-05T09:39:13.692Z,22.30
2023-05-05T09:42:27.117Z,22.30
2023-05-05T09:45:39.725Z,22.20
2023-05-05T09:48:51.538Z,22.30
2023-05-05T09:52:07.315Z,22.30
2023-05-05T09:55:21.479Z,22.30
2023-05-05T09:58:34.865Z,22.20
2023-05-05T10:01:45.110Z,22.20
2023-05-05T10:05:01.621Z,22.20
2023-05-05T10:08:18.032Z,22.20
2023-05-05T10:11:30.373Z,22.10
2023-05-05T10:14:42.455Z,22.10
2023-05-05T10:18:06.942Z,22.10
2023-05-05T10:21:07.819Z,22.20
2023-05-05T10:24:22.488Z,22.20
2023-05-05T10:27:35.508Z,22.10
2023-05-05T10:30:49.081Z,22.10
2023-05-05T10:34:03.743Z,22.20
2023-05-05T10:37:13.621Z,22.40
2023-05-05T10:40:25.332Z,22.50
2023-05-05T10:43:39.415Z,22.60
2023-05-05T10:46:48.265Z,22.70
2023-05-05T10:50:04.341Z,22.90
2023-05-05T10:53:20.524Z,23.00
2023-05-05T10:56:32.846Z,23.20
2023-05-05T10:59:52.498Z,23.30
2023-05-05T11:03:27.495Z,23.40
2023-05-05T11:06:42.399Z,23.40
2023-05-05T11:10:07.806Z,23.50
2023-05-05T11:13:27.299Z,23.40
2023-05-05T11:16:53.220Z,23.30
2023-05-05T11:20:04.038Z,23.20
2023-05-05T11:23:29.906Z,23.30
2023-05-05T11:26:59.541Z,23.40
2023-05-05T11:30:13.622Z,23.60
2023-05-05T11:33:34.909Z,23.70
2023-05-05T11:37:05.975Z,23.80
2023-05-05T11:40:21.583Z,23.70
2023-05-05T11:43:36.030Z,23.70
2023-05-05T11:46:51.022Z,23.60
2023-05-05T11:50:05.399Z,23.50
2023-05-05T11:53:15.586Z,23.40
2023-05-05T11:56:30.308Z,23.40
2023-05-05T11:59:40.008Z,23.30
2023-05-05T12:02:52.880Z,23.30
2023-05-05T12:06:04.527Z,23.30
2023-05-05T12:09:18.261Z,23.30
2023-05-05T12:12:38.764Z,23.40
2023-05-05T12:15:50.182Z,23.40
2023-05-05T12:19:12.390Z,23.50
2023-05-05T12:22:32.008Z,23.70
2023-05-05T12:25:50.565Z,23.90
2023-05-05T12:29:04.985Z,24.10
2023-05-05T12:32:26.695Z,24.20
2023-05-05T12:35:37.198Z,24.30
2023-05-05T12:38:47.581Z,24.30
2023-05-05T12:41:56.401Z,24.20
2023-05-05T12:45:11.341Z,24.20
2023-05-05T12:48:29.235Z,24.10
2023-05-05T12:51:38.155Z,24.10
2023-05-05T12:55:03.222Z,24.10
2023-05-05T12:58:15.009Z,24.10
2023-05-05T13:01:26.149Z,24.10
2023-05-05T13:04:36.967Z,24.10
2023-05-05T13:07:58.279Z,24.10
2023-05-05T13:11:09.417Z,24.20
2023-05-05T13:14:19.124Z,24.20
2023-05-05T13:17:34.690Z,24.40
2023-05-05T13:20:44.391Z,24.40
2023-05-05T13:24:01.591Z,24.40
2023-05-05T13:27:12.484Z,24.40
2023-05-05T13:30:25.082Z,24.40
2023-05-05T13:33:35.436Z,24.50
2023-05-05T13:36:47.374Z,24.70
2023-05-05T13:39:59.969Z,24.70
2023-05-05T13:43:11.592Z,24.70
2023-05-05T13:46:23.128Z,24.80
2023-05-05T13:49:35.055Z,24.90
2023-05-05T13:52:47.904Z,24.90
2023-05-05T13:55:57.635Z,24.90
2023-05-05T13:59:08.796Z,25.00
2023-05-05T14:02:21.207Z,25.10
2023-05-05T14:05:31.511Z,25.10
2023-05-05T14:08:43.717Z,25.20
2023-05-05T14:11:56.495Z,25.10
2023-05-05T14:15:07.920Z,25.10
2023-05-05T14:18:23.285Z,25.20
2023-05-05T14:21:33.177Z,25.20
2023-05-05T14:24:43.768Z,25.10
2023-05-05T14:27:56.557Z,25.20
2023-05-05T14:31:10.654Z,25.40
2023-05-05T14:34:21.192Z,25.50
2023-05-05T14:37:33.524Z,25.70
2023-05-05T14:40:43.901Z,25.60
2023-05-05T14:43:54.608Z,25.60
2023-05-05T14:47:07.268Z,25.60
2023-05-05T14:50:15.379Z,25.60
2023-05-05T14:53:27.655Z,25.60
2023-05-05T14:56:40.771Z,25.50
2023-05-05T14:59:49.796Z,25.50
2023-05-05T15:02:59.573Z,25.60
2023-05-05T15:06:14.969Z,25.60
2023-05-05T15:09:25.661Z,25.50
2023-05-05T15:12:36.273Z,25.40
2023-05-05T15:15:43.950Z,25.40
2023-05-05T15:18:51.648Z,25.40
2023-05-05T15:22:03.571Z,25.40
2023-05-05T15:25:22.323Z,25.30
2023-05-05T15:28:31.932Z,25.30
2023-05-05T15:31:40.691Z,25.30
2023-05-05T15:34:50.966Z,25.30
2023-05-05T15:38:03.968Z,25.30
2023-05-05T15:41:13.870Z,25.30
2023-05-05T15:44:24.499Z,25.30
2023-05-05T15:47:34.025Z,25.30
2023-05-05T15:50:46.005Z,25.40
2023-05-05T15:53:56.516Z,25.40
2023-05-05T15:57:07.849Z,25.30
2023-05-05T16:00:20.274Z,25.30
2023-05-05T16:03:31.932Z,25.40
2023-05-05T16:06:40.772Z,25.40
2023-05-05T16:09:50.105Z,25.30
2023-05-05T16:13:00.375Z,25.30
2023-05-05T16:16:12.653Z,25.30
2023-05-05T16:19:24.352Z,25.30
2023-05-05T16:22:32.877Z,25.40
2023-05-05T16:25:43.571Z,25.30
2023-05-05T16:28:53.966Z,25.30
2023-05-05T16:32:01.889Z,25.30
2023-05-05T16:35:14.516Z,25.30
2023-05-05T16:38:25.933Z,25.40
2023-05-05T16:41:36.233Z,25.30
2023-05-05T16:44:45.929Z,25.30
2023-05-05T16:47:55.936Z,25.30
2023-05-05T16:51:07.599Z,25.30
2023-05-05T16:54:21.849Z,25.30
2023-05-05T16:57:33.359Z,25.30
2023-05-05T17:00:49.378Z,25.30
2023-05-05T17:04:00.887Z,25.30
2023-05-05T17:07:12.510Z,25.30
2023-05-05T17:10:26.813Z,25.30
2023-05-05T17:13:36.961Z,25.20
2023-05-05T17:16:47.763Z,25.20
2023-05-05T17:19:57.816Z,25.30
2023-05-05T17:23:10.997Z,25.30
2023-05-05T17:26:18.067Z,25.20
2023-05-05T17:29:27.478Z,25.20
2023-05-05T17:32:43.562Z,25.20
2023-05-05T17:35:55.405Z,25.30
2023-05-05T17:39:07.768Z,25.20
2023-05-05T17:42:19.186Z,25.10
2023-05-05T17:45:28.557Z,25.10
2023-05-05T17:48:37.779Z,25.10
2023-05-05T17:51:47.881Z,25.10
2023-05-05T17:54:56.736Z,25.00
2023-05-05T17:58:09.972Z,25.00
2023-05-05T18:01:26.715Z,24.90
2023-05-05T18:04:34.901Z,25.00
2023-05-05T18:07:46.160Z,25.00
2023-05-05T18:10:53.868Z,24.90
2023-05-05T18:14:04.606Z,24.90
2023-05-05T18:17:15.746Z,24.90
2023-05-05T18:20:25.258Z,24.90
2023-05-05T18:23:36.167Z,24.90
2023-05-05T18:26:46.204Z,24.80
2023-05-05T18:29:56.293Z,24.80
2023-05-05T18:33:08.214Z,24.90
2023-05-05T18:36:20.654Z,24.90
2023-05-05T18:39:29.683Z,24.90
2023-05-05T18:42:43.146Z,24.80
2023-05-05T18:45:53.458Z,24.80
2023-05-05T18:49:02.451Z,24.90
2023-05-05T18:52:13.726Z,24.90
2023-05-05T18:55:23.632Z,24.80
2023-05-05T18:58:34.294Z,24.70
2023-05-05T19:01:45.507Z,24.70
2023-05-05T19:04:55.592Z,24.80
2023-05-05T19:08:06.494Z,24.80
2023-05-05T19:11:18.282Z,24.70
2023-05-05T19:14:32.900Z,24.70
2023-05-05T19:17:41.891Z,24.70
2023-05-05T19:20:51.289Z,24.80
2023-05-05T19:24:03.932Z,24.70
2023-05-05T19:27:16.444Z,24.70
2023-05-05T19:30:28.606Z,24.80
2023-05-05T19:33:41.041Z,24.90
2023-05-05T19:36:49.759Z,24.90
2023-05-05T19:40:02.964Z,24.90
2023-05-05T19:43:09.701Z,24.90
2023-05-05T19:46:20.561Z,24.90
2023-05-05T19:49:32.582Z,24.90
2023-05-05T19:52:43.631Z,24.90
2023-05-05T19:55:51.921Z,24.80
2023-05-05T19:59:03.244Z,24.70
2023-05-05T20:02:17.635Z,24.70
2023-05-05T20:05:30.851Z,24.80
2023-05-05T20:08:40.413Z,24.80
2023-05-05T20:11:52.193Z,24.70
2023-05-05T20:15:01.884Z,24.80
2023-05-05T20:18:12.399Z,24.80
2023-05-05T20:21:25.989Z,24.90
2023-05-05T20:24:35.650Z,24.80
2023-05-05T20:27:45.900Z,24.80
2023-05-05T20:30:56.082Z,24.80
2023-05-05T20:34:04.317Z,24.90
2023-05-05T20:37:18.161Z,24.90
2023-05-05T20:40:30.974Z,24.80
2023-05-05T20:43:42.393Z,24.70
2023-05-05T20:46:54.309Z,24.70
2023-05-05T20:50:07.858Z,24.70
2023-05-05T20:53:19.550Z,24.70
2023-05-05T20:56:29.350Z,24.70
2023-05-05T20:59:39.620Z,24.60
2023-05-05T21:02:52.930Z,24.70
2023-05-05T21:06:00.858Z,24.70
2023-05-05T21:09:10.619Z,24.70
2023-05-05T21:12:22.041Z,24.60
2023-05-05T21:15:36.375Z,24.60
2023-05-05T21:18:46.775Z,24.60
2023-05-05T21:21:59.619Z,24.70
2023-05-05T21:25:19.245Z,24.70
2023-05-05T21:28:27.369Z,24.70
2023-05-05T21:31:38.713Z,24.70
2023-05-05T21:34:49.884Z,24.70
2023-05-05T21:37:59.966Z,24.80
2023-05-05T21:41:10.222Z,24.70
2023-05-05T21:44:22.775Z,24.70
2023-05-05T21:47:32.053Z,24.70
2023-05-05T21:50:41.458Z,24.70
2023-05-05T21:53:49.587Z,24.70
2023-05-05T21:56:58.900Z,24.70
2023-05-05T22:00:10.135Z,24.60
2023-05-05T22:03:20.953Z,24.70
2023-05-05T22:06:31.299Z,24.70
2023-05-05T22:09:40.577Z,24.70
2023-05-05T22:12:51.380Z,24.60
2023-05-05T22:16:03.387Z,24.60
2023-05-05T22:19:16.968Z,24.60
2023-05-05T22:22:26.055Z,24.60
2023-05-05T22:25:36.637Z,24.60
2023-05-05T22:28:48.493Z,24.50
2023-05-05T22:31:57.766Z,24.50
2023-05-05T22:35:10.516Z,24.50
2023-05-05T22:38:21.807Z,24.50
2023-05-05T22:41:32.752Z,24.50
2023-05-05T22:44:43.143Z,24.50
2023-05-05T22:47:55.985Z,24.50
2023-05-05T22:51:08.686Z,24.50
2023-05-05T22:54:22.102Z,24.50
2023-05-05T22:57:32.114Z,24.50
2023-05-05T23:00:42.771Z,24.40
2023-05-05T23:03:52.612Z,24.40
2023-05-05T23:07:02.494Z,24.50
2023-05-05T23:10:17.828Z,24.40
2023-05-05T23:13:28.509Z,24.40
2023-05-05T23:16:41.262Z,24.40
2023-05-05T23:19:52.773Z,24.40
2023-05-05T23:23:03.842Z,24.50
2023-05-05T23:26:17.176Z,24.40
2023-05-05T23:29:25.060Z,24.40
2023-05-05T23:32:34.466Z,24.40
2023-05-05T23:35:47.396Z,24.40
2023-05-05T23:38:55.691Z,24.40
2023-05-05T23:42:05.361Z,24.40
2023-05-05T23:45:20.000Z,24.30
2023-05-05T23:48:32.838Z,24.30
2023-05-05T23:51:43.158Z,24.40
2023-05-05T23:54:52.457Z,24.40
2023-05-05T23:58:02.070Z,24.30
